sensor_id;sensor_type;location;lat;lon;timestamp;pressure;altitude;pressure_sealevel;temperature;humidity
11987;BME280;6053;51.382;6.768;2022-12-07T00:01:46;101342.41;;;9.27;100.00
11987;BME280;6053;51.382;6.768;2022-12-07T00:04:17;101337.91;;;9.00;100.00
11987;BME280;6053;51.382;6.768;2022-12-07T00:06:50;101336.91;;;8.59;100.00
11987;BME280;6053;51.382;6.768;2022-12-07T00:09:20;101338.75;;;9.00;100.00
11987;BME280;6053;51.382;6.768;2022-12-07T00:11:51;101351.03;;;9.11;100.00
11987;BME280;6053;51.382;6.768;2022-12-07T00:14:20;101340.25;;;7.36;100.00
11987;BME280;6053;51.382;6.768;2022-12-07T00:16:50;101341.97;;;8.56;100.00
11987;BME280;6053;51.382;6.768;2022-12-07T00:19:19;101336.91;;;8.59;100.00
11987;BME280;6053;51.382;6.768;2022-12-07T00:21:48;101342.19;;;8.61;100.00
11987;BME280;6053;51.382;6.768;2022-12-07T00:24:16;101333.50;;;6.95;100.00
11987;BME280;6053;51.382;6.768;2022-12-07T00:26:46;101334.94;;;8.12;100.00
11987;BME280;6053;51.382;6.768;2022-12-07T00:29:18;101334.88;;;8.81;100.00
11987;BME280;6053;51.382;6.768;2022-12-07T00:31:47;101329.88;;;9.11;100.00
11987;BME280;6053;51.382;6.768;2022-12-07T00:34:17;101333.47;;;8.50;100.00
11987;BME280;6053;51.382;6.768;2022-12-07T00:36:46;101334.06;;;8.39;100.00
11987;BME280;6053;51.382;6.768;2022-12-07T00:39:15;101328.09;;;8.77;100.00
11987;BME280;6053;51.382;6.768;2022-12-07T00:41:45;101335.78;;;9.08;100.00
11987;BME280;6053;51.382;6.768;2022-12-07T00:44:14;101322.03;;;9.08;100.00
11987;BME280;6053;51.382;6.768;2022-12-07T00:46:43;101314.59;;;8.89;100.00
11987;BME280;6053;51.382;6.768;2022-12-07T00:49:12;101318.13;;;7.93;100.00
11987;BME280;6053;51.382;6.768;2022-12-07T00:51:40;101319.31;;;8.12;100.00
11987;BME280;6053;51.382;6.768;2022-12-07T00:54:09;101318.78;;;8.37;100.00
11987;BME280;6053;51.382;6.768;2022-12-07T00:56:37;101318.28;;;8.61;100.00
11987;BME280;6053;51.382;6.768;2022-12-07T00:59:10;101323.06;;;8.94;100.00
11987;BME280;6053;51.382;6.768;2022-12-07T01:01:40;101310.72;;;8.70;100.00
11987;BME280;6053;51.382;6.768;2022-12-07T01:04:08;101321.41;;;9.13;100.00
11987;BME280;6053;51.382;6.768;2022-12-07T01:06:37;101314.50;;;8.27;100.00
11987;BME280;6053;51.382;6.768;2022-12-07T01:09:06;101316.19;;;8.63;100.00
11987;BME280;6053;51.382;6.768;2022-12-07T01:11:34;101310.56;;;8.91;100.00
11987;BME280;6053;51.382;6.768;2022-12-07T01:14:03;101320.91;;;8.83;100.00
11987;BME280;6053;51.382;6.768;2022-12-07T01:16:33;101312.78;;;8.61;100.00
11987;BME280;6053;51.382;6.768;2022-12-07T01:19:02;101314.59;;;8.41;100.00
11987;BME280;6053;51.382;6.768;2022-12-07T01:21:34;101309.19;;;8.19;100.00
11987;BME280;6053;51.382;6.768;2022-12-07T01:24:07;101304.28;;;8.49;100.00
11987;BME280;6053;51.382;6.768;2022-12-07T01:26:37;101307.34;;;8.74;100.00
11987;BME280;6053;51.382;6.768;2022-12-07T01:29:05;101313.25;;;8.78;100.00
11987;BME280;6053;51.382;6.768;2022-12-07T01:31:35;101305.53;;;9.15;100.00
11987;BME280;6053;51.382;6.768;2022-12-07T01:34:04;101308.94;;;9.30;100.00
11987;BME280;6053;51.382;6.768;2022-12-07T01:36:34;101307.88;;;9.25;100.00
11987;BME280;6053;51.382;6.768;2022-12-07T01:39:05;101312.22;;;8.72;100.00
11987;BME280;6053;51.382;6.768;2022-12-07T01:41:36;101316.50;;;8.95;100.00
11987;BME280;6053;51.382;6.768;2022-12-07T01:44:24;101325.22;;;9.12;100.00
11987;BME280;6053;51.382;6.768;2022-12-07T01:46:56;101318.69;;;9.33;100.00
11987;BME280;6053;51.382;6.768;2022-12-07T01:49:30;101326.31;;;9.44;100.00
11987;BME280;6053;51.382;6.768;2022-12-07T01:52:10;101315.09;;;9.32;100.00
11987;BME280;6053;51.382;6.768;2022-12-07T01:54:42;101311.19;;;8.87;100.00
11987;BME280;6053;51.382;6.768;2022-12-07T01:57:13;101314.16;;;8.98;100.00
11987;BME280;6053;51.382;6.768;2022-12-07T01:59:43;101310.38;;;8.93;100.00
11987;BME280;6053;51.382;6.768;2022-12-07T02:02:20;101313.59;;;9.16;100.00
11987;BME280;6053;51.382;6.768;2022-12-07T02:04:52;101307.06;;;8.21;100.00
11987;BME280;6053;51.382;6.768;2022-12-07T02:07:22;101304.88;;;8.45;100.00
11987;BME280;6053;51.382;6.768;2022-12-07T02:09:51;101296.59;;;8.93;100.00
11987;BME280;6053;51.382;6.768;2022-12-07T02:12:20;101294.06;;;9.05;100.00
11987;BME280;6053;51.382;6.768;2022-12-07T02:14:50;101301.50;;;9.11;100.00
11987;BME280;6053;51.382;6.768;2022-12-07T02:17:28;101302.88;;;8.25;100.00
11987;BME280;6053;51.382;6.768;2022-12-07T02:20:24;101293.50;;;8.55;100.00
11987;BME280;6053;51.382;6.768;2022-12-07T02:26:30;101298.22;;;8.67;100.00
11987;BME280;6053;51.382;6.768;2022-12-07T02:29:20;101300.25;;;9.13;100.00
11987;BME280;6053;51.382;6.768;2022-12-07T02:32:03;101310.44;;;9.33;100.00
11987;BME280;6053;51.382;6.768;2022-12-07T02:34:44;101311.06;;;9.28;100.00
11987;BME280;6053;51.382;6.768;2022-12-07T02:37:27;101311.13;;;8.67;100.00
11987;BME280;6053;51.382;6.768;2022-12-07T02:40:06;101309.13;;;9.22;100.00
11987;BME280;6053;51.382;6.768;2022-12-07T02:42:43;101312.13;;;9.27;100.00
11987;BME280;6053;51.382;6.768;2022-12-07T02:45:18;101311.69;;;9.30;100.00
11987;BME280;6053;51.382;6.768;2022-12-07T02:47:51;101300.47;;;9.45;100.00
11987;BME280;6053;51.382;6.768;2022-12-07T02:50:21;101306.38;;;9.29;100.00
11987;BME280;6053;51.382;6.768;2022-12-07T02:52:50;101297.50;;;9.33;100.00
11987;BME280;6053;51.382;6.768;2022-12-07T02:55:23;101299.88;;;8.55;100.00
11987;BME280;6053;51.382;6.768;2022-12-07T02:58:17;101312.84;;;8.74;100.00
11987;BME280;6053;51.382;6.768;2022-12-07T03:01:00;101311.69;;;9.17;100.00
11987;BME280;6053;51.382;6.768;2022-12-07T03:03:33;101308.53;;;9.27;100.00
11987;BME280;6053;51.382;6.768;2022-12-07T03:06:13;101308.53;;;9.27;100.00
11987;BME280;6053;51.382;6.768;2022-12-07T03:08:52;101299.81;;;9.16;100.00
11987;BME280;6053;51.382;6.768;2022-12-07T03:11:29;101310.59;;;9.11;100.00
11987;BME280;6053;51.382;6.768;2022-12-07T03:14:07;101311.25;;;9.07;100.00
11987;BME280;6053;51.382;6.768;2022-12-07T03:16:45;101315.94;;;9.26;100.00
11987;BME280;6053;51.382;6.768;2022-12-07T03:19:18;101308.28;;;9.21;100.00
11987;BME280;6053;51.382;6.768;2022-12-07T03:21:53;101309.13;;;9.09;100.00
11987;BME280;6053;51.382;6.768;2022-12-07T03:24:27;101305.94;;;9.18;100.00
11987;BME280;6053;51.382;6.768;2022-12-07T03:27:07;101310.41;;;9.13;100.00
11987;BME280;6053;51.382;6.768;2022-12-07T03:29:41;101299.38;;;9.00;100.00
11987;BME280;6053;51.382;6.768;2022-12-07T03:32:16;101296.19;;;8.96;100.00
11987;BME280;6053;51.382;6.768;2022-12-07T03:34:51;101305.50;;;9.08;100.00
11987;BME280;6053;51.382;6.768;2022-12-07T03:37:29;101306.38;;;9.09;100.00
11987;BME280;6053;51.382;6.768;2022-12-07T03:40:06;101307.66;;;9.06;100.00
11987;BME280;6053;51.382;6.768;2022-12-07T03:42:36;101298.13;;;9.15;100.00
11987;BME280;6053;51.382;6.768;2022-12-07T03:45:05;101305.41;;;8.68;100.00
11987;BME280;6053;51.382;6.768;2022-12-07T03:47:43;101309.09;;;8.89;100.00
11987;BME280;6053;51.382;6.768;2022-12-07T03:50:21;101301.47;;;8.97;100.00
11987;BME280;6053;51.382;6.768;2022-12-07T03:52:55;101308.25;;;9.08;100.00
11987;BME280;6053;51.382;6.768;2022-12-07T03:55:29;101305.75;;;9.13;100.00
11987;BME280;6053;51.382;6.768;2022-12-07T03:58:02;101305.13;;;9.25;100.00
11987;BME280;6053;51.382;6.768;2022-12-07T04:00:32;101302.38;;;9.25;100.00
11987;BME280;6053;51.382;6.768;2022-12-07T04:03:02;101303.22;;;9.25;100.00
11987;BME280;6053;51.382;6.768;2022-12-07T04:05:32;101300.69;;;9.24;100.00
11987;BME280;6053;51.382;6.768;2022-12-07T04:08:00;101299.44;;;9.33;100.00
11987;BME280;6053;51.382;6.768;2022-12-07T04:10:29;101299.41;;;9.26;100.00
11987;BME280;6053;51.382;6.768;2022-12-07T04:12:57;101300.03;;;9.28;100.00
11987;BME280;6053;51.382;6.768;2022-12-07T04:15:26;101305.34;;;9.30;100.00
11987;BME280;6053;51.382;6.768;2022-12-07T04:17:54;101303.22;;;9.32;100.00
11987;BME280;6053;51.382;6.768;2022-12-07T04:20:24;101304.09;;;9.32;100.00
11987;BME280;6053;51.382;6.768;2022-12-07T04:22:52;101295.84;;;9.32;100.00
11987;BME280;6053;51.382;6.768;2022-12-07T04:25:21;101297.09;;;9.36;100.00
11987;BME280;6053;51.382;6.768;2022-12-07T04:27:49;101289.00;;;9.15;100.00
11987;BME280;6053;51.382;6.768;2022-12-07T04:30:19;101292.41;;;9.24;100.00
11987;BME280;6053;51.382;6.768;2022-12-07T04:32:47;101291.47;;;8.70;100.00
11987;BME280;6053;51.382;6.768;2022-12-07T04:35:16;101295.34;;;8.89;100.00
11987;BME280;6053;51.382;6.768;2022-12-07T04:37:46;101292.38;;;9.04;100.00
11987;BME280;6053;51.382;6.768;2022-12-07T04:40:14;101288.16;;;9.01;100.00
11987;BME280;6053;51.382;6.768;2022-12-07T04:42:42;101296.63;;;9.00;100.00
11987;BME280;6053;51.382;6.768;2022-12-07T04:45:11;101286.06;;;9.10;100.00
11987;BME280;6053;51.382;6.768;2022-12-07T04:47:39;101295.16;;;9.17;100.00
11987;BME280;6053;51.382;6.768;2022-12-07T04:50:10;101286.25;;;9.15;100.00
11987;BME280;6053;51.382;6.768;2022-12-07T04:52:38;101290.09;;;9.20;100.00
11987;BME280;6053;51.382;6.768;2022-12-07T04:55:08;101291.78;;;9.21;100.00
11987;BME280;6053;51.382;6.768;2022-12-07T04:57:37;101291.34;;;9.25;100.00
11987;BME280;6053;51.382;6.768;2022-12-07T05:00:07;101297.50;;;9.27;100.00
11987;BME280;6053;51.382;6.768;2022-12-07T05:02:35;101288.41;;;9.26;100.00
11987;BME280;6053;51.382;6.768;2022-12-07T05:05:04;101288.19;;;9.28;100.00
11987;BME280;6053;51.382;6.768;2022-12-07T05:07:33;101293.06;;;9.19;100.00
11987;BME280;6053;51.382;6.768;2022-12-07T05:10:01;101291.75;;;9.02;100.00
11987;BME280;6053;51.382;6.768;2022-12-07T05:12:32;101292.84;;;9.14;100.00
11987;BME280;6053;51.382;6.768;2022-12-07T05:15:00;101287.97;;;9.16;100.00
11987;BME280;6053;51.382;6.768;2022-12-07T05:17:29;101299.81;;;9.10;100.00
11987;BME280;6053;51.382;6.768;2022-12-07T05:19:57;101291.34;;;9.11;100.00
11987;BME280;6053;51.382;6.768;2022-12-07T05:22:26;101299.81;;;9.10;100.00
11987;BME280;6053;51.382;6.768;2022-12-07T05:24:55;101298.28;;;8.94;100.00
11987;BME280;6053;51.382;6.768;2022-12-07T05:27:24;101298.31;;;9.07;100.00
11987;BME280;6053;51.382;6.768;2022-12-07T05:29:53;101289.00;;;9.15;100.00
11987;BME280;6053;51.382;6.768;2022-12-07T05:32:22;101292.63;;;9.22;100.00
11987;BME280;6053;51.382;6.768;2022-12-07T05:34:50;101290.09;;;9.20;100.00
11987;BME280;6053;51.382;6.768;2022-12-07T05:37:19;101294.94;;;9.18;100.00
11987;BME280;6053;51.382;6.768;2022-12-07T05:39:47;101285.66;;;9.19;100.00
11987;BME280;6053;51.382;6.768;2022-12-07T05:42:16;101281.41;;;9.24;100.00
11987;BME280;6053;51.382;6.768;2022-12-07T05:44:45;101286.69;;;9.18;100.00
11987;BME280;6053;51.382;6.768;2022-12-07T05:47:16;101280.16;;;9.19;100.00
11987;BME280;6053;51.382;6.768;2022-12-07T05:49:44;101273.16;;;9.24;100.00
11987;BME280;6053;51.382;6.768;2022-12-07T05:52:13;101277.59;;;9.18;100.00
11987;BME280;6053;51.382;6.768;2022-12-07T05:54:41;101278.88;;;9.15;100.00
11987;BME280;6053;51.382;6.768;2022-12-07T05:57:09;101284.56;;;9.20;100.00
11987;BME280;6053;51.382;6.768;2022-12-07T05:59:38;101283.09;;;9.18;100.00
11987;BME280;6053;51.382;6.768;2022-12-07T06:02:08;101276.97;;;9.09;100.00
11987;BME280;6053;51.382;6.768;2022-12-07T06:04:42;101289.22;;;9.13;100.00
11987;BME280;6053;51.382;6.768;2022-12-07T06:07:13;101285.00;;;9.11;100.00
11987;BME280;6053;51.382;6.768;2022-12-07T06:09:42;101281.41;;;9.17;100.00
11987;BME280;6053;51.382;6.768;2022-12-07T06:12:12;101280.16;;;9.19;100.00
11987;BME280;6053;51.382;6.768;2022-12-07T06:15:04;101280.34;;;9.18;100.00
11987;BME280;6053;51.382;6.768;2022-12-07T06:17:33;101297.25;;;9.08;100.00
11987;BME280;6053;51.382;6.768;2022-12-07T06:20:03;101287.13;;;9.15;100.00
11987;BME280;6053;51.382;6.768;2022-12-07T06:22:32;101285.22;;;9.09;100.00
11987;BME280;6053;51.382;6.768;2022-12-07T06:25:00;101293.06;;;9.19;100.00
11987;BME280;6053;51.382;6.768;2022-12-07T06:27:35;101281.53;;;8.76;100.00
11987;BME280;6053;51.382;6.768;2022-12-07T06:30:05;101291.97;;;9.07;100.00
11987;BME280;6053;51.382;6.768;2022-12-07T06:32:36;101285.84;;;9.11;100.00
11987;BME280;6053;51.382;6.768;2022-12-07T06:35:07;101288.81;;;9.16;100.00
11987;BME280;6053;51.382;6.768;2022-12-07T06:37:36;101289.66;;;9.17;100.00
11987;BME280;6053;51.382;6.768;2022-12-07T06:40:06;101285.63;;;9.06;100.00
11987;BME280;6053;51.382;6.768;2022-12-07T06:42:34;101290.50;;;9.11;100.00
11987;BME280;6053;51.382;6.768;2022-12-07T06:45:04;101291.56;;;9.10;100.00
11987;BME280;6053;51.382;6.768;2022-12-07T06:47:32;101291.66;;;8.68;100.00
11987;BME280;6053;51.382;6.768;2022-12-07T06:50:12;101288.97;;;8.88;100.00
11987;BME280;6053;51.382;6.768;2022-12-07T06:52:41;101294.69;;;8.93;100.00
11987;BME280;6053;51.382;6.768;2022-12-07T06:55:09;101300.19;;;8.93;100.00
11987;BME280;6053;51.382;6.768;2022-12-07T06:57:37;101296.78;;;8.91;100.00
11987;BME280;6053;51.382;6.768;2022-12-07T07:00:07;101297.63;;;8.92;100.00
11987;BME280;6053;51.382;6.768;2022-12-07T07:02:36;101293.66;;;9.01;100.00
11987;BME280;6053;51.382;6.768;2022-12-07T07:05:04;101294.91;;;9.05;100.00
11987;BME280;6053;51.382;6.768;2022-12-07T07:07:34;101297.47;;;9.07;100.00
11987;BME280;6053;51.382;6.768;2022-12-07T07:10:23;101300.22;;;9.07;100.00
11987;BME280;6053;51.382;6.768;2022-12-07T07:12:51;101306.81;;;9.06;100.00
11987;BME280;6053;51.382;6.768;2022-12-07T07:15:23;101304.69;;;9.14;100.00
11987;BME280;6053;51.382;6.768;2022-12-07T07:17:52;101302.13;;;9.06;100.00
11987;BME280;6053;51.382;6.768;2022-12-07T07:20:20;101305.09;;;9.05;100.00
11987;BME280;6053;51.382;6.768;2022-12-07T07:22:50;101309.09;;;8.95;100.00
11987;BME280;6053;51.382;6.768;2022-12-07T07:25:19;101306.56;;;8.94;100.00
11987;BME280;6053;51.382;6.768;2022-12-07T07:27:47;101310.56;;;8.98;100.00
11987;BME280;6053;51.382;6.768;2022-12-07T07:30:16;101311.22;;;9.00;100.00
11987;BME280;6053;51.382;6.768;2022-12-07T07:32:44;101306.13;;;8.97;100.00
11987;BME280;6053;51.382;6.768;2022-12-07T07:35:13;101305.47;;;8.95;100.00
11987;BME280;6053;51.382;6.768;2022-12-07T07:37:41;101311.88;;;8.95;100.00
11987;BME280;6053;51.382;6.768;2022-12-07T07:40:11;101311.88;;;8.95;100.00
11987;BME280;6053;51.382;6.768;2022-12-07T07:42:40;101307.41;;;8.94;100.00
11987;BME280;6053;51.382;6.768;2022-12-07T07:45:09;101306.97;;;8.91;100.00
11987;BME280;6053;51.382;6.768;2022-12-07T07:47:38;101315.22;;;8.97;100.00
11987;BME280;6053;51.382;6.768;2022-12-07T07:50:07;101314.63;;;9.02;100.00
11987;BME280;6053;51.382;6.768;2022-12-07T07:52:36;101315.47;;;9.03;100.00
11987;BME280;6053;51.382;6.768;2022-12-07T07:55:06;101313.13;;;9.00;100.00
11987;BME280;6053;51.382;6.768;2022-12-07T07:57:37;101313.13;;;8.93;100.00
11987;BME280;6053;51.382;6.768;2022-12-07T08:00:09;101309.72;;;8.97;100.00
11987;BME280;6053;51.382;6.768;2022-12-07T08:02:38;101307.97;;;8.70;100.00
11987;BME280;6053;51.382;6.768;2022-12-07T08:05:08;101309.91;;;8.83;100.00
11987;BME280;6053;51.382;6.768;2022-12-07T08:07:36;101310.78;;;8.90;100.00
11987;BME280;6053;51.382;6.768;2022-12-07T08:10:07;101310.13;;;8.88;100.00
11987;BME280;6053;51.382;6.768;2022-12-07T08:12:38;101315.22;;;8.97;100.00
11987;BME280;6053;51.382;6.768;2022-12-07T08:15:29;101312.03;;;8.87;100.00
11987;BME280;6053;51.382;6.768;2022-12-07T08:17:58;101316.75;;;9.07;100.00
11987;BME280;6053;51.382;6.768;2022-12-07T08:20:29;101313.75;;;9.02;100.00
11987;BME280;6053;51.382;6.768;2022-12-07T08:22:59;101306.56;;;8.94;100.00
11987;BME280;6053;51.382;6.768;2022-12-07T08:25:27;101320.97;;;9.03;100.00
11987;BME280;6053;51.382;6.768;2022-12-07T08:27:57;101317.97;;;8.91;100.00
11987;BME280;6053;51.382;6.768;2022-12-07T08:30:28;101327.31;;;8.96;100.00
11987;BME280;6053;51.382;6.768;2022-12-07T08:32:57;101324.75;;;8.95;100.00
11987;BME280;6053;51.382;6.768;2022-12-07T08:35:25;101323.19;;;8.66;100.00
11987;BME280;6053;51.382;6.768;2022-12-07T08:37:54;101326.41;;;8.83;100.00
11987;BME280;6053;51.382;6.768;2022-12-07T08:40:24;101325.59;;;8.89;100.00
11987;BME280;6053;51.382;6.768;2022-12-07T08:42:53;101319.81;;;8.70;100.00
11987;BME280;6053;51.382;6.768;2022-12-07T08:45:22;101322.19;;;8.80;100.00
11987;BME280;6053;51.382;6.768;2022-12-07T08:47:58;101316.28;;;8.90;100.00
11987;BME280;6053;51.382;6.768;2022-12-07T08:50:30;101320.91;;;8.83;100.00
11987;BME280;6053;51.382;6.768;2022-12-07T08:53:00;101320.03;;;8.69;100.00
11987;BME280;6053;51.382;6.768;2022-12-07T08:55:29;101315.03;;;8.99;100.00
11987;BME280;6053;51.382;6.768;2022-12-07T08:57:58;101319.09;;;9.16;100.00
11987;BME280;6053;51.382;6.768;2022-12-07T09:00:28;101321.38;;;8.93;100.00
11987;BME280;6053;51.382;6.768;2022-12-07T09:02:57;101324.41;;;8.15;100.00
11987;BME280;6053;51.382;6.768;2022-12-07T09:05:26;101321.78;;;8.07;100.00
11987;BME280;6053;51.382;6.768;2022-12-07T09:07:57;101320.00;;;7.93;100.00
11987;BME280;6053;51.382;6.768;2022-12-07T09:10:28;101313.00;;;8.60;100.00
11987;BME280;6053;51.382;6.768;2022-12-07T09:12:57;101318.69;;;8.58;100.00
11987;BME280;6053;51.382;6.768;2022-12-07T09:15:29;101318.06;;;7.87;100.00
11987;BME280;6053;51.382;6.768;2022-12-07T09:17:58;101308.94;;;8.14;100.00
11987;BME280;6053;51.382;6.768;2022-12-07T09:20:27;101320.47;;;8.72;100.00
11987;BME280;6053;51.382;6.768;2022-12-07T09:22:55;101322.66;;;8.97;100.00
11987;BME280;6053;51.382;6.768;2022-12-07T09:25:24;101320.34;;;8.46;100.00
11987;BME280;6053;51.382;6.768;2022-12-07T09:27:56;101327.50;;;8.95;100.00
11987;BME280;6053;51.382;6.768;2022-12-07T09:30:25;101326.09;;;8.58;100.00
11987;BME280;6053;51.382;6.768;2022-12-07T09:32:56;101322.22;;;9.00;100.00
11987;BME280;6053;51.382;6.768;2022-12-07T09:35:25;101329.53;;;8.25;100.00
11987;BME280;6053;51.382;6.768;2022-12-07T09:37:54;101325.66;;;8.54;100.00
11987;BME280;6053;51.382;6.768;2022-12-07T09:40:23;101330.66;;;8.79;100.00
11987;BME280;6053;51.382;6.768;2022-12-07T09:42:54;101337.50;;;9.03;100.00
11987;BME280;6053;51.382;6.768;2022-12-07T09:45:25;101320.91;;;8.76;100.00
11987;BME280;6053;51.382;6.768;2022-12-07T09:47:57;101323.22;;;8.72;100.00
11987;BME280;6053;51.382;6.768;2022-12-07T09:50:28;101323.91;;;9.01;100.00
11987;BME280;6053;51.382;6.768;2022-12-07T09:53:09;101324.38;;;8.50;100.00
11987;BME280;6053;51.382;6.768;2022-12-07T09:55:38;101319.66;;;8.79;100.00
11987;BME280;6053;51.382;6.768;2022-12-07T09:58:16;101323.91;;;8.94;100.00
11987;BME280;6053;51.382;6.768;2022-12-07T10:00:46;101311.41;;;8.98;100.00
11987;BME280;6053;51.382;6.768;2022-12-07T10:03:16;101315.88;;;8.93;100.00
11987;BME280;6053;51.382;6.768;2022-12-07T10:05:47;101308.28;;;9.21;100.00
11987;BME280;6053;51.382;6.768;2022-12-07T10:08:17;101310.19;;;9.14;100.00
11987;BME280;6053;51.382;6.768;2022-12-07T10:10:50;101311.69;;;9.17;100.00
11987;BME280;6053;51.382;6.768;2022-12-07T10:13:21;101315.69;;;9.08;100.00
11987;BME280;6053;51.382;6.768;2022-12-07T10:15:53;101307.22;;;9.09;100.00
11987;BME280;6053;51.382;6.768;2022-12-07T10:18:31;101305.75;;;9.20;100.00
11987;BME280;6053;51.382;6.768;2022-12-07T10:21:10;101304.25;;;9.17;100.00
11987;BME280;6053;51.382;6.768;2022-12-07T10:23:41;101301.31;;;9.19;100.00
11987;BME280;6053;51.382;6.768;2022-12-07T10:26:32;101295.09;;;8.84;100.00
11987;BME280;6053;51.382;6.768;2022-12-07T10:29:12;101303.63;;;9.29;100.00
11987;BME280;6053;51.382;6.768;2022-12-07T10:31:42;101294.75;;;9.40;100.00
11987;BME280;6053;51.382;6.768;2022-12-07T10:34:23;101298.56;;;9.72;100.00
11987;BME280;6053;51.382;6.768;2022-12-07T10:36:53;101279.66;;;8.83;100.00
11987;BME280;6053;51.382;6.768;2022-12-07T10:39:23;101282.44;;;8.96;100.00
11987;BME280;6053;51.382;6.768;2022-12-07T10:41:56;101278.84;;;9.55;100.00
11987;BME280;6053;51.382;6.768;2022-12-07T10:44:28;101284.59;;;9.34;100.00
11987;BME280;6053;51.382;6.768;2022-12-07T10:47:29;101275.91;;;9.63;100.00
11987;BME280;6053;51.382;6.768;2022-12-07T10:50:39;101272.00;;;8.71;100.00
11987;BME280;6053;51.382;6.768;2022-12-07T10:53:39;101270.38;;;9.17;100.00
11987;BME280;6053;51.382;6.768;2022-12-07T10:56:33;101264.38;;;8.19;100.00
11987;BME280;6053;51.382;6.768;2022-12-07T10:59:36;101260.34;;;8.63;100.00
11987;BME280;6053;51.382;6.768;2022-12-07T11:02:25;101265.94;;;9.03;100.00
11987;BME280;6053;51.382;6.768;2022-12-07T11:05:10;101264.72;;;8.44;100.00
11987;BME280;6053;51.382;6.768;2022-12-07T11:07:50;101261.06;;;9.38;100.00
11987;BME280;6053;51.382;6.768;2022-12-07T11:10:26;101257.47;;;9.11;100.00
11987;BME280;6053;51.382;6.768;2022-12-07T11:13:25;101257.75;;;8.48;100.00
11987;BME280;6053;51.382;6.768;2022-12-07T11:16:23;101250.22;;;8.77;100.00
11987;BME280;6053;51.382;6.768;2022-12-07T11:19:11;101251.34;;;9.15;100.00
11987;BME280;6053;51.382;6.768;2022-12-07T11:21:56;101245.97;;;8.67;100.00
11987;BME280;6053;51.382;6.768;2022-12-07T11:24:35;101241.53;;;8.73;100.00
11987;BME280;6053;51.382;6.768;2022-12-07T11:27:19;101244.78;;;9.30;100.00
11987;BME280;6053;51.382;6.768;2022-12-07T11:30:12;101240.31;;;8.89;100.00
11987;BME280;6053;51.382;6.768;2022-12-07T11:33:07;101233.09;;;9.01;100.00
11987;BME280;6053;51.382;6.768;2022-12-07T11:35:49;101226.56;;;8.89;100.00
11987;BME280;6053;51.382;6.768;2022-12-07T11:38:31;101234.19;;;9.20;100.00
11987;BME280;6053;51.382;6.768;2022-12-07T11:41:05;101228.47;;;9.21;100.00
11987;BME280;6053;51.382;6.768;2022-12-07T11:44:02;101211.72;;;9.63;100.00
11987;BME280;6053;51.382;6.768;2022-12-07T11:46:45;101212.50;;;9.83;100.00
11987;BME280;6053;51.382;6.768;2022-12-07T11:49:23;101221.66;;;8.91;100.00
11987;BME280;6053;51.382;6.768;2022-12-07T11:51:58;101215.53;;;9.42;100.00
11987;BME280;6053;51.382;6.768;2022-12-07T11:54:35;101219.56;;;9.00;100.00
11987;BME280;6053;51.382;6.768;2022-12-07T11:57:13;101210.25;;;9.34;100.00
11987;BME280;6053;51.382;6.768;2022-12-07T11:59:50;101216.38;;;9.56;100.00
11987;BME280;6053;51.382;6.768;2022-12-07T12:02:24;101210.19;;;9.74;100.00
11987;BME280;6053;51.382;6.768;2022-12-07T12:04:59;101208.34;;;9.41;100.00
11987;BME280;6053;51.382;6.768;2022-12-07T12:07:31;101211.75;;;9.23;100.00
11987;BME280;6053;51.382;6.768;2022-12-07T12:10:27;101216.34;;;8.69;100.00
11987;BME280;6053;51.382;6.768;2022-12-07T12:13:12;101211.28;;;8.66;100.00
11987;BME280;6053;51.382;6.768;2022-12-07T12:16:28;101208.91;;;8.50;100.00
11987;BME280;6053;51.382;6.768;2022-12-07T12:19:25;101200.09;;;9.28;100.00
11987;BME280;6053;51.382;6.768;2022-12-07T12:22:02;101194.78;;;9.39;100.00
11987;BME280;6053;51.382;6.768;2022-12-07T12:24:33;101196.00;;;8.57;100.00
11987;BME280;6053;51.382;6.768;2022-12-07T12:27:08;101199.41;;;8.11;100.00
11987;BME280;6053;51.382;6.768;2022-12-07T12:29:40;101190.56;;;9.04;100.00
11987;BME280;6053;51.382;6.768;2022-12-07T12:32:17;101193.91;;;8.11;100.00
11987;BME280;6053;51.382;6.768;2022-12-07T12:35:17;101191.00;;;8.19;100.00
11987;BME280;6053;51.382;6.768;2022-12-07T12:37:48;101189.28;;;8.86;100.00
11987;BME280;6053;51.382;6.768;2022-12-07T12:40:43;101194.69;;;7.85;100.00
11987;BME280;6053;51.382;6.768;2022-12-07T12:43:49;101198.53;;;7.97;100.00
11987;BME280;6053;51.382;6.768;2022-12-07T12:46:51;101189.25;;;7.01;100.00
11987;BME280;6053;51.382;6.768;2022-12-07T12:50:12;101179.38;;;8.17;100.00
11987;BME280;6053;51.382;6.768;2022-12-07T12:52:52;101174.47;;;8.87;100.00
11987;BME280;6053;51.382;6.768;2022-12-07T12:55:58;101171.28;;;9.24;100.00
11987;BME280;6053;51.382;6.768;2022-12-07T12:58:40;101177.16;;;9.60;100.00
11987;BME280;6053;51.382;6.768;2022-12-07T13:01:40;101174.78;;;9.77;100.00
11987;BME280;6053;51.382;6.768;2022-12-07T13:07:54;101166.72;;;9.76;100.00
11987;BME280;6053;51.382;6.768;2022-12-07T13:10:42;101170.50;;;9.88;100.00
11987;BME280;6053;51.382;6.768;2022-12-07T13:13:33;101166.91;;;9.87;100.00
11987;BME280;6053;51.382;6.768;2022-12-07T13:16:49;101163.31;;;9.87;100.00
11987;BME280;6053;51.382;6.768;2022-12-07T13:19:57;101164.63;;;9.71;100.00
11987;BME280;6053;51.382;6.768;2022-12-07T13:22:53;101154.25;;;9.73;100.00
11987;BME280;6053;51.382;6.768;2022-12-07T13:25:44;101155.47;;;9.84;100.00
11987;BME280;6053;51.382;6.768;2022-12-07T13:28:17;101151.88;;;9.83;100.00
11987;BME280;6053;51.382;6.768;2022-12-07T13:30:57;101151.69;;;9.78;100.00
11987;BME280;6053;51.382;6.768;2022-12-07T13:33:30;101147.16;;;9.39;100.00
11987;BME280;6053;51.382;6.768;2022-12-07T13:35:58;101148.16;;;9.51;100.00
11987;BME280;6053;51.382;6.768;2022-12-07T13:38:30;101142.84;;;9.56;100.00
11987;BME280;6053;51.382;6.768;2022-12-07T13:41:02;101134.25;;;9.06;100.00
11987;BME280;6053;51.382;6.768;2022-12-07T13:43:41;101135.50;;;9.24;100.00
11987;BME280;6053;51.382;6.768;2022-12-07T13:46:11;101128.88;;;9.51;100.00